Terminal Aerodrome Forecast
Issued by NWS Greer, SC

Home | Current Version | Previous Version | Text Only | Print | Product List | Glossary On
Versions: 1 2 3 4 5 6 7 8 9 10 11 12 13
000
FTUS42 KGSP 260536
TAFGSP
TAF
KGSP 260536Z 2606/2706 36003KT P6SM SCT050 SCT070 SCT250
     FM261400 02007KT P6SM FEW250
     FM270000 03003KT P6SM FEW090=

USA.gov is the U.S. government's official web portal to all federal, state and local government web resources and services.